sensor_id;sensor_type;location;lat;lon;timestamp;P1;durP1;ratioP1;P2;durP2;ratioP2
47053;SDS011;32811;52.382;5.270;2023-02-28T00:00:20;6.43;;;1.48;;
47053;SDS011;32811;52.382;5.270;2023-02-28T00:02:48;2.28;;;0.80;;
47053;SDS011;32811;52.382;5.270;2023-02-28T00:05:16;2.63;;;0.80;;
47053;SDS011;32811;52.382;5.270;2023-02-28T00:07:44;7.35;;;2.25;;
47053;SDS011;32811;52.382;5.270;2023-02-28T00:10:15;3.80;;;1.60;;
47053;SDS011;32811;52.382;5.270;2023-02-28T00:12:50;3.35;;;1.00;;
47053;SDS011;32811;52.382;5.270;2023-02-28T00:15:18;6.85;;;0.80;;
47053;SDS011;32811;52.382;5.270;2023-02-28T00:17:44;2.78;;;1.00;;
47053;SDS011;32811;52.382;5.270;2023-02-28T00:20:12;2.55;;;0.80;;
47053;SDS011;32811;52.382;5.270;2023-02-28T00:22:40;2.80;;;1.00;;
47053;SDS011;32811;52.382;5.270;2023-02-28T00:25:12;2.33;;;0.80;;
47053;SDS011;32811;52.382;5.270;2023-02-28T00:27:41;2.45;;;1.00;;
47053;SDS011;32811;52.382;5.270;2023-02-28T00:30:09;4.45;;;1.85;;
47053;SDS011;32811;52.382;5.270;2023-02-28T00:32:38;5.72;;;0.90;;
47053;SDS011;32811;52.382;5.270;2023-02-28T00:35:05;1.90;;;0.85;;
47053;SDS011;32811;52.382;5.270;2023-02-28T00:37:33;4.40;;;1.00;;
47053;SDS011;32811;52.382;5.270;2023-02-28T00:40:00;3.70;;;1.13;;
47053;SDS011;32811;52.382;5.270;2023-02-28T00:42:26;4.93;;;1.02;;
47053;SDS011;32811;52.382;5.270;2023-02-28T00:44:53;4.13;;;1.10;;
47053;SDS011;32811;52.382;5.270;2023-02-28T00:47:20;3.55;;;0.93;;
47053;SDS011;32811;52.382;5.270;2023-02-28T00:49:47;5.93;;;1.15;;
47053;SDS011;32811;52.382;5.270;2023-02-28T00:52:13;8.35;;;1.30;;
47053;SDS011;32811;52.382;5.270;2023-02-28T00:54:40;2.25;;;0.98;;
47053;SDS011;32811;52.382;5.270;2023-02-28T00:57:07;3.58;;;0.95;;
47053;SDS011;32811;52.382;5.270;2023-02-28T00:59:33;1.90;;;1.08;;
47053;SDS011;32811;52.382;5.270;2023-02-28T01:02:00;3.05;;;1.00;;
47053;SDS011;32811;52.382;5.270;2023-02-28T01:04:26;2.85;;;0.80;;
47053;SDS011;32811;52.382;5.270;2023-02-28T01:06:53;3.47;;;0.93;;
47053;SDS011;32811;52.382;5.270;2023-02-28T01:09:20;3.55;;;0.82;;
47053;SDS011;32811;52.382;5.270;2023-02-28T01:11:46;2.75;;;0.80;;
47053;SDS011;32811;52.382;5.270;2023-02-28T01:14:14;1.67;;;0.57;;
47053;SDS011;32811;52.382;5.270;2023-02-28T01:16:42;3.65;;;0.98;;
47053;SDS011;32811;52.382;5.270;2023-02-28T01:19:09;8.25;;;0.88;;
47053;SDS011;32811;52.382;5.270;2023-02-28T01:21:36;3.35;;;1.05;;
47053;SDS011;32811;52.382;5.270;2023-02-28T01:24:03;3.50;;;1.05;;
47053;SDS011;32811;52.382;5.270;2023-02-28T01:26:31;2.97;;;1.02;;
47053;SDS011;32811;52.382;5.270;2023-02-28T01:28:58;2.17;;;1.10;;
47053;SDS011;32811;52.382;5.270;2023-02-28T01:31:25;2.80;;;0.88;;
47053;SDS011;32811;52.382;5.270;2023-02-28T01:33:52;4.63;;;1.10;;
47053;SDS011;32811;52.382;5.270;2023-02-28T01:36:20;4.82;;;1.35;;
47053;SDS011;32811;52.382;5.270;2023-02-28T01:38:49;2.17;;;1.38;;
47053;SDS011;32811;52.382;5.270;2023-02-28T01:41:17;4.07;;;0.95;;
47053;SDS011;32811;52.382;5.270;2023-02-28T01:46:14;4.93;;;0.85;;
47053;SDS011;32811;52.382;5.270;2023-02-28T01:48:51;5.75;;;1.65;;
47053;SDS011;32811;52.382;5.270;2023-02-28T01:51:26;2.30;;;0.95;;
47053;SDS011;32811;52.382;5.270;2023-02-28T01:53:56;1.92;;;0.90;;
47053;SDS011;32811;52.382;5.270;2023-02-28T01:56:29;3.55;;;1.20;;
47053;SDS011;32811;52.382;5.270;2023-02-28T01:58:58;3.30;;;0.77;;
47053;SDS011;32811;52.382;5.270;2023-02-28T02:01:25;3.03;;;1.17;;
47053;SDS011;32811;52.382;5.270;2023-02-28T02:03:55;6.90;;;1.08;;
47053;SDS011;32811;52.382;5.270;2023-02-28T02:06:29;4.25;;;1.00;;
47053;SDS011;32811;52.382;5.270;2023-02-28T02:09:16;2.65;;;0.80;;
47053;SDS011;32811;52.382;5.270;2023-02-28T02:11:43;2.55;;;0.93;;
47053;SDS011;32811;52.382;5.270;2023-02-28T02:14:12;5.05;;;1.48;;
47053;SDS011;32811;52.382;5.270;2023-02-28T02:24:43;6.32;;;1.70;;
47053;SDS011;32811;52.382;5.270;2023-02-28T02:37:54;1.00;;;0.68;;
47053;SDS011;32811;52.382;5.270;2023-02-28T02:40:33;5.35;;;1.13;;
47053;SDS011;32811;52.382;5.270;2023-02-28T02:48:15;5.00;;;1.60;;
47053;SDS011;32811;52.382;5.270;2023-02-28T02:50:46;2.55;;;1.17;;
47053;SDS011;32811;52.382;5.270;2023-02-28T02:53:17;5.97;;;1.00;;
47053;SDS011;32811;52.382;5.270;2023-02-28T02:55:48;4.32;;;0.90;;
47053;SDS011;32811;52.382;5.270;2023-02-28T02:58:23;3.38;;;1.20;;
47053;SDS011;32811;52.382;5.270;2023-02-28T03:00:55;5.43;;;1.17;;
47053;SDS011;32811;52.382;5.270;2023-02-28T03:03:27;3.60;;;1.05;;
47053;SDS011;32811;52.382;5.270;2023-02-28T03:05:57;4.45;;;2.42;;
47053;SDS011;32811;52.382;5.270;2023-02-28T03:08:25;4.55;;;1.05;;
47053;SDS011;32811;52.382;5.270;2023-02-28T03:10:56;4.65;;;1.30;;
47053;SDS011;32811;52.382;5.270;2023-02-28T03:13:34;7.43;;;1.40;;
47053;SDS011;32811;52.382;5.270;2023-02-28T03:18:54;3.70;;;1.30;;
47053;SDS011;32811;52.382;5.270;2023-02-28T03:21:34;5.68;;;1.10;;
47053;SDS011;32811;52.382;5.270;2023-02-28T03:24:25;5.45;;;2.00;;
47053;SDS011;32811;52.382;5.270;2023-02-28T03:27:06;5.70;;;1.85;;
47053;SDS011;32811;52.382;5.270;2023-02-28T03:29:39;4.00;;;1.52;;
47053;SDS011;32811;52.382;5.270;2023-02-28T03:34:49;3.67;;;1.35;;
47053;SDS011;32811;52.382;5.270;2023-02-28T03:37:24;1.65;;;1.33;;
47053;SDS011;32811;52.382;5.270;2023-02-28T03:40:05;3.05;;;1.80;;
47053;SDS011;32811;52.382;5.270;2023-02-28T03:42:39;3.22;;;1.92;;
47053;SDS011;32811;52.382;5.270;2023-02-28T03:45:15;5.90;;;1.60;;
47053;SDS011;32811;52.382;5.270;2023-02-28T03:50:12;5.80;;;1.27;;
47053;SDS011;32811;52.382;5.270;2023-02-28T03:55:51;2.70;;;1.40;;
47053;SDS011;32811;52.382;5.270;2023-02-28T03:58:28;4.03;;;1.35;;
47053;SDS011;32811;52.382;5.270;2023-02-28T04:01:07;5.50;;;2.50;;
47053;SDS011;32811;52.382;5.270;2023-02-28T04:03:37;5.25;;;2.13;;
47053;SDS011;32811;52.382;5.270;2023-02-28T04:06:06;5.28;;;1.80;;
47053;SDS011;32811;52.382;5.270;2023-02-28T04:08:38;4.35;;;1.60;;
47053;SDS011;32811;52.382;5.270;2023-02-28T04:11:12;4.25;;;1.55;;
47053;SDS011;32811;52.382;5.270;2023-02-28T04:13:45;5.70;;;2.65;;
47053;SDS011;32811;52.382;5.270;2023-02-28T04:16:12;7.60;;;2.25;;
47053;SDS011;32811;52.382;5.270;2023-02-28T04:18:57;3.78;;;1.42;;
47053;SDS011;32811;52.382;5.270;2023-02-28T04:21:28;5.63;;;2.15;;
47053;SDS011;32811;52.382;5.270;2023-02-28T04:23:56;10.10;;;2.05;;
47053;SDS011;32811;52.382;5.270;2023-02-28T04:26:32;3.75;;;2.00;;
47053;SDS011;32811;52.382;5.270;2023-02-28T04:29:00;5.47;;;2.47;;
47053;SDS011;32811;52.382;5.270;2023-02-28T04:31:27;5.50;;;2.15;;
47053;SDS011;32811;52.382;5.270;2023-02-28T04:33:54;4.82;;;1.90;;
47053;SDS011;32811;52.382;5.270;2023-02-28T04:36:21;5.60;;;2.78;;
47053;SDS011;32811;52.382;5.270;2023-02-28T04:38:49;4.90;;;1.92;;
47053;SDS011;32811;52.382;5.270;2023-02-28T04:41:16;4.95;;;2.00;;
47053;SDS011;32811;52.382;5.270;2023-02-28T04:43:43;6.00;;;2.00;;
47053;SDS011;32811;52.382;5.270;2023-02-28T04:46:10;3.63;;;2.20;;
47053;SDS011;32811;52.382;5.270;2023-02-28T04:48:37;6.93;;;2.17;;
47053;SDS011;32811;52.382;5.270;2023-02-28T04:51:08;8.48;;;2.30;;
47053;SDS011;32811;52.382;5.270;2023-02-28T04:53:37;5.95;;;2.85;;
47053;SDS011;32811;52.382;5.270;2023-02-28T04:56:05;9.18;;;2.85;;
47053;SDS011;32811;52.382;5.270;2023-02-28T04:58:33;5.35;;;2.72;;
47053;SDS011;32811;52.382;5.270;2023-02-28T05:01:04;2.70;;;2.42;;
47053;SDS011;32811;52.382;5.270;2023-02-28T05:03:39;2.38;;;1.98;;
47053;SDS011;32811;52.382;5.270;2023-02-28T05:06:09;6.57;;;2.60;;
47053;SDS011;32811;52.382;5.270;2023-02-28T05:08:36;15.98;;;5.28;;
47053;SDS011;32811;52.382;5.270;2023-02-28T05:11:03;7.78;;;2.95;;
47053;SDS011;32811;52.382;5.270;2023-02-28T05:13:32;11.20;;;3.53;;
47053;SDS011;32811;52.382;5.270;2023-02-28T05:15:59;10.68;;;4.53;;
47053;SDS011;32811;52.382;5.270;2023-02-28T05:18:26;11.07;;;3.92;;
47053;SDS011;32811;52.382;5.270;2023-02-28T05:20:52;4.20;;;3.80;;
47053;SDS011;32811;52.382;5.270;2023-02-28T05:23:19;16.00;;;5.93;;
47053;SDS011;32811;52.382;5.270;2023-02-28T05:25:49;8.35;;;4.85;;
47053;SDS011;32811;52.382;5.270;2023-02-28T05:28:15;8.38;;;5.57;;
47053;SDS011;32811;52.382;5.270;2023-02-28T05:30:42;10.00;;;6.50;;
47053;SDS011;32811;52.382;5.270;2023-02-28T05:33:10;10.13;;;5.80;;
47053;SDS011;32811;52.382;5.270;2023-02-28T05:35:41;11.52;;;5.95;;
47053;SDS011;32811;52.382;5.270;2023-02-28T05:38:11;12.10;;;6.07;;
47053;SDS011;32811;52.382;5.270;2023-02-28T05:40:38;8.73;;;6.07;;
47053;SDS011;32811;52.382;5.270;2023-02-28T05:43:05;8.35;;;6.15;;
47053;SDS011;32811;52.382;5.270;2023-02-28T05:45:36;11.88;;;6.28;;
47053;SDS011;32811;52.382;5.270;2023-02-28T05:48:02;8.50;;;6.60;;
47053;SDS011;32811;52.382;5.270;2023-02-28T05:50:29;7.60;;;5.47;;
47053;SDS011;32811;52.382;5.270;2023-02-28T05:52:56;7.85;;;6.45;;
47053;SDS011;32811;52.382;5.270;2023-02-28T05:55:22;10.38;;;6.50;;
47053;SDS011;32811;52.382;5.270;2023-02-28T05:57:49;10.93;;;6.85;;
47053;SDS011;32811;52.382;5.270;2023-02-28T06:00:16;12.63;;;6.85;;
47053;SDS011;32811;52.382;5.270;2023-02-28T06:02:44;9.60;;;4.93;;
47053;SDS011;32811;52.382;5.270;2023-02-28T06:05:12;8.93;;;3.88;;
47053;SDS011;32811;52.382;5.270;2023-02-28T06:07:41;5.70;;;2.80;;
47053;SDS011;32811;52.382;5.270;2023-02-28T06:10:08;4.07;;;2.50;;
47053;SDS011;32811;52.382;5.270;2023-02-28T06:12:35;4.50;;;2.13;;
47053;SDS011;32811;52.382;5.270;2023-02-28T06:15:06;5.57;;;2.08;;
47053;SDS011;32811;52.382;5.270;2023-02-28T06:17:33;2.58;;;1.58;;
47053;SDS011;32811;52.382;5.270;2023-02-28T06:19:59;6.25;;;1.90;;
47053;SDS011;32811;52.382;5.270;2023-02-28T06:22:26;3.20;;;1.83;;
47053;SDS011;32811;52.382;5.270;2023-02-28T06:24:53;4.43;;;2.10;;
47053;SDS011;32811;52.382;5.270;2023-02-28T06:27:26;4.18;;;1.85;;
47053;SDS011;32811;52.382;5.270;2023-02-28T06:30:11;4.25;;;2.25;;
47053;SDS011;32811;52.382;5.270;2023-02-28T06:32:46;4.55;;;1.45;;
47053;SDS011;32811;52.382;5.270;2023-02-28T06:35:30;5.35;;;2.05;;
47053;SDS011;32811;52.382;5.270;2023-02-28T06:38:08;1.80;;;1.20;;
47053;SDS011;32811;52.382;5.270;2023-02-28T06:40:52;4.67;;;2.30;;
47053;SDS011;32811;52.382;5.270;2023-02-28T06:43:41;4.38;;;1.90;;
47053;SDS011;32811;52.382;5.270;2023-02-28T06:46:16;12.63;;;3.28;;
47053;SDS011;32811;52.382;5.270;2023-02-28T06:48:43;2.97;;;1.50;;
47053;SDS011;32811;52.382;5.270;2023-02-28T06:51:12;2.00;;;1.42;;
47053;SDS011;32811;52.382;5.270;2023-02-28T06:53:40;4.88;;;1.40;;
47053;SDS011;32811;52.382;5.270;2023-02-28T06:56:10;2.70;;;1.73;;
47053;SDS011;32811;52.382;5.270;2023-02-28T06:58:38;2.85;;;1.35;;
47053;SDS011;32811;52.382;5.270;2023-02-28T07:01:06;3.38;;;1.50;;
47053;SDS011;32811;52.382;5.270;2023-02-28T07:03:38;1.98;;;1.40;;
47053;SDS011;32811;52.382;5.270;2023-02-28T07:06:04;2.13;;;1.25;;
47053;SDS011;32811;52.382;5.270;2023-02-28T07:08:33;4.18;;;1.20;;
47053;SDS011;32811;52.382;5.270;2023-02-28T07:11:00;2.25;;;1.58;;
47053;SDS011;32811;52.382;5.270;2023-02-28T07:13:27;3.63;;;2.25;;
47053;SDS011;32811;52.382;5.270;2023-02-28T07:15:58;4.30;;;1.95;;
47053;SDS011;32811;52.382;5.270;2023-02-28T07:18:26;3.40;;;1.27;;
47053;SDS011;32811;52.382;5.270;2023-02-28T07:20:54;6.18;;;1.67;;
47053;SDS011;32811;52.382;5.270;2023-02-28T07:23:21;3.85;;;2.03;;
47053;SDS011;32811;52.382;5.270;2023-02-28T07:25:49;2.58;;;1.60;;
47053;SDS011;32811;52.382;5.270;2023-02-28T07:28:16;2.25;;;1.20;;
47053;SDS011;32811;52.382;5.270;2023-02-28T07:30:43;3.17;;;1.77;;
47053;SDS011;32811;52.382;5.270;2023-02-28T07:33:09;4.32;;;1.75;;
47053;SDS011;32811;52.382;5.270;2023-02-28T07:35:36;3.53;;;1.75;;
47053;SDS011;32811;52.382;5.270;2023-02-28T07:38:03;4.60;;;1.67;;
47053;SDS011;32811;52.382;5.270;2023-02-28T07:40:30;4.07;;;1.48;;
47053;SDS011;32811;52.382;5.270;2023-02-28T07:42:58;2.58;;;1.42;;
47053;SDS011;32811;52.382;5.270;2023-02-28T07:45:26;2.78;;;1.20;;
47053;SDS011;32811;52.382;5.270;2023-02-28T07:47:55;3.10;;;1.45;;
47053;SDS011;32811;52.382;5.270;2023-02-28T07:50:22;3.40;;;2.00;;
47053;SDS011;32811;52.382;5.270;2023-02-28T07:52:51;2.78;;;1.58;;
47053;SDS011;32811;52.382;5.270;2023-02-28T07:55:17;5.75;;;2.75;;
47053;SDS011;32811;52.382;5.270;2023-02-28T07:57:44;4.50;;;1.65;;
47053;SDS011;32811;52.382;5.270;2023-02-28T08:00:11;3.33;;;1.85;;
47053;SDS011;32811;52.382;5.270;2023-02-28T08:02:39;2.22;;;1.67;;
47053;SDS011;32811;52.382;5.270;2023-02-28T08:05:06;5.10;;;2.20;;
47053;SDS011;32811;52.382;5.270;2023-02-28T08:07:33;2.47;;;1.98;;
47053;SDS011;32811;52.382;5.270;2023-02-28T08:10:01;4.53;;;1.80;;
47053;SDS011;32811;52.382;5.270;2023-02-28T08:12:28;4.78;;;2.30;;
47053;SDS011;32811;52.382;5.270;2023-02-28T08:14:55;4.25;;;2.35;;
47053;SDS011;32811;52.382;5.270;2023-02-28T08:17:22;6.30;;;2.78;;
47053;SDS011;32811;52.382;5.270;2023-02-28T08:19:48;3.88;;;2.95;;
47053;SDS011;32811;52.382;5.270;2023-02-28T08:22:15;4.68;;;1.92;;
47053;SDS011;32811;52.382;5.270;2023-02-28T08:24:42;3.97;;;2.22;;
47053;SDS011;32811;52.382;5.270;2023-02-28T08:27:09;3.85;;;2.20;;
47053;SDS011;32811;52.382;5.270;2023-02-28T08:29:36;4.97;;;3.03;;
47053;SDS011;32811;52.382;5.270;2023-02-28T08:32:04;2.25;;;2.05;;
47053;SDS011;32811;52.382;5.270;2023-02-28T08:34:51;1.77;;;1.65;;
47053;SDS011;32811;52.382;5.270;2023-02-28T08:37:24;7.43;;;2.63;;
47053;SDS011;32811;52.382;5.270;2023-02-28T08:39:51;2.47;;;2.28;;
47053;SDS011;32811;52.382;5.270;2023-02-28T08:42:42;3.17;;;2.38;;
47053;SDS011;32811;52.382;5.270;2023-02-28T08:45:08;4.60;;;2.70;;
47053;SDS011;32811;52.382;5.270;2023-02-28T08:47:35;3.53;;;2.53;;
47053;SDS011;32811;52.382;5.270;2023-02-28T08:50:03;2.85;;;2.03;;
47053;SDS011;32811;52.382;5.270;2023-02-28T08:52:30;4.50;;;1.92;;
47053;SDS011;32811;52.382;5.270;2023-02-28T08:54:57;3.40;;;2.15;;
47053;SDS011;32811;52.382;5.270;2023-02-28T08:57:24;4.82;;;2.08;;
47053;SDS011;32811;52.382;5.270;2023-02-28T08:59:52;5.78;;;2.80;;
47053;SDS011;32811;52.382;5.270;2023-02-28T09:02:19;5.28;;;2.60;;
47053;SDS011;32811;52.382;5.270;2023-02-28T09:04:45;3.58;;;1.98;;
47053;SDS011;32811;52.382;5.270;2023-02-28T09:07:12;4.43;;;3.42;;
47053;SDS011;32811;52.382;5.270;2023-02-28T09:09:39;8.98;;;2.65;;
47053;SDS011;32811;52.382;5.270;2023-02-28T09:12:20;5.05;;;2.42;;
47053;SDS011;32811;52.382;5.270;2023-02-28T09:14:48;3.08;;;2.28;;
47053;SDS011;32811;52.382;5.270;2023-02-28T09:17:15;4.85;;;2.78;;
47053;SDS011;32811;52.382;5.270;2023-02-28T09:19:42;4.45;;;2.30;;
47053;SDS011;32811;52.382;5.270;2023-02-28T09:22:09;5.38;;;3.08;;
47053;SDS011;32811;52.382;5.270;2023-02-28T09:24:37;2.25;;;1.95;;
47053;SDS011;32811;52.382;5.270;2023-02-28T09:27:09;5.10;;;2.25;;
47053;SDS011;32811;52.382;5.270;2023-02-28T09:29:36;5.60;;;2.33;;
47053;SDS011;32811;52.382;5.270;2023-02-28T09:32:03;4.57;;;2.45;;
47053;SDS011;32811;52.382;5.270;2023-02-28T09:34:32;5.00;;;2.35;;
47053;SDS011;32811;52.382;5.270;2023-02-28T09:36:59;3.28;;;2.38;;
47053;SDS011;32811;52.382;5.270;2023-02-28T09:39:26;3.40;;;2.25;;
47053;SDS011;32811;52.382;5.270;2023-02-28T09:41:53;3.15;;;2.13;;
47053;SDS011;32811;52.382;5.270;2023-02-28T09:47:42;4.38;;;2.08;;
47053;SDS011;32811;52.382;5.270;2023-02-28T09:52:49;2.60;;;1.77;;
47053;SDS011;32811;52.382;5.270;2023-02-28T09:55:22;3.90;;;1.52;;
47053;SDS011;32811;52.382;5.270;2023-02-28T09:58:20;8.40;;;2.45;;
47053;SDS011;32811;52.382;5.270;2023-02-28T10:00:56;2.78;;;1.98;;
47053;SDS011;32811;52.382;5.270;2023-02-28T10:03:35;3.10;;;1.83;;
47053;SDS011;32811;52.382;5.270;2023-02-28T10:06:26;3.03;;;1.58;;
47053;SDS011;32811;52.382;5.270;2023-02-28T10:11:50;4.10;;;2.22;;
47053;SDS011;32811;52.382;5.270;2023-02-28T10:14:23;4.60;;;2.70;;
47053;SDS011;32811;52.382;5.270;2023-02-28T10:25:45;3.42;;;1.45;;
47053;SDS011;32811;52.382;5.270;2023-02-28T10:28:16;2.90;;;1.75;;
47053;SDS011;32811;52.382;5.270;2023-02-28T10:30:48;1.60;;;1.10;;
47053;SDS011;32811;52.382;5.270;2023-02-28T10:33:51;2.70;;;1.00;;
47053;SDS011;32811;52.382;5.270;2023-02-28T10:36:15;2.20;;;1.15;;
47053;SDS011;32811;52.382;5.270;2023-02-28T10:38:45;1.67;;;0.88;;
47053;SDS011;32811;52.382;5.270;2023-02-28T10:41:16;3.00;;;1.05;;
47053;SDS011;32811;52.382;5.270;2023-02-28T10:44:12;3.13;;;1.05;;
47053;SDS011;32811;52.382;5.270;2023-02-28T10:46:49;1.33;;;1.00;;
47053;SDS011;32811;52.382;5.270;2023-02-28T10:49:22;1.20;;;0.73;;
47053;SDS011;32811;52.382;5.270;2023-02-28T10:51:57;3.17;;;0.90;;
47053;SDS011;32811;52.382;5.270;2023-02-28T10:54:30;2.30;;;1.00;;
47053;SDS011;32811;52.382;5.270;2023-02-28T10:59:45;2.55;;;1.20;;
47053;SDS011;32811;52.382;5.270;2023-02-28T11:02:30;2.47;;;1.02;;
47053;SDS011;32811;52.382;5.270;2023-02-28T11:05:21;2.78;;;0.95;;
47053;SDS011;32811;52.382;5.270;2023-02-28T11:07:52;2.53;;;1.08;;
47053;SDS011;32811;52.382;5.270;2023-02-28T11:10:21;2.80;;;1.20;;
47053;SDS011;32811;52.382;5.270;2023-02-28T11:12:55;3.58;;;1.45;;
47053;SDS011;32811;52.382;5.270;2023-02-28T11:15:27;2.83;;;1.23;;
47053;SDS011;32811;52.382;5.270;2023-02-28T11:20:37;2.38;;;1.20;;
47053;SDS011;32811;52.382;5.270;2023-02-28T11:23:05;3.30;;;1.33;;
47053;SDS011;32811;52.382;5.270;2023-02-28T11:25:40;2.97;;;1.00;;
47053;SDS011;32811;52.382;5.270;2023-02-28T11:28:24;1.90;;;1.00;;
47053;SDS011;32811;52.382;5.270;2023-02-28T11:33:47;3.92;;;1.10;;
47053;SDS011;32811;52.382;5.270;2023-02-28T11:36:29;1.45;;;0.80;;
47053;SDS011;32811;52.382;5.270;2023-02-28T11:39:00;3.50;;;1.85;;
47053;SDS011;32811;52.382;5.270;2023-02-28T11:41:44;2.13;;;0.90;;
47053;SDS011;32811;52.382;5.270;2023-02-28T11:47:07;1.90;;;0.60;;
47053;SDS011;32811;52.382;5.270;2023-02-28T11:52:42;2.45;;;1.30;;
47053;SDS011;32811;52.382;5.270;2023-02-28T11:55:26;4.38;;;1.23;;
47053;SDS011;32811;52.382;5.270;2023-02-28T12:00:45;3.53;;;0.90;;
47053;SDS011;32811;52.382;5.270;2023-02-28T12:08:39;4.13;;;0.77;;
47053;SDS011;32811;52.382;5.270;2023-02-28T12:11:35;1.55;;;0.80;;
47053;SDS011;32811;52.382;5.270;2023-02-28T12:28:15;1.13;;;0.90;;
47053;SDS011;32811;52.382;5.270;2023-02-28T12:30:53;1.15;;;0.80;;
47053;SDS011;32811;52.382;5.270;2023-02-28T12:33:36;2.25;;;0.80;;
47053;SDS011;32811;52.382;5.270;2023-02-28T12:36:09;2.65;;;0.70;;
47053;SDS011;32811;52.382;5.270;2023-02-28T12:38:43;2.53;;;0.80;;
47053;SDS011;32811;52.382;5.270;2023-02-28T12:44:04;1.33;;;0.70;;
47053;SDS011;32811;52.382;5.270;2023-02-28T12:46:41;1.85;;;0.77;;
47053;SDS011;32811;52.382;5.270;2023-02-28T12:49:13;0.52;;;0.52;;
47053;SDS011;32811;52.382;5.270;2023-02-28T12:51:44;2.58;;;1.40;;
47053;SDS011;32811;52.382;5.270;2023-02-28T12:59:27;0.82;;;0.68;;
47053;SDS011;32811;52.382;5.270;2023-02-28T13:10:41;0.88;;;0.73;;
47053;SDS011;32811;52.382;5.270;2023-02-28T13:13:14;2.83;;;0.70;;
47053;SDS011;32811;52.382;5.270;2023-02-28T13:18:45;1.23;;;0.70;;
47053;SDS011;32811;52.382;5.270;2023-02-28T13:21:23;0.85;;;0.60;;
47053;SDS011;32811;52.382;5.270;2023-02-28T13:23:57;1.35;;;0.70;;
47053;SDS011;32811;52.382;5.270;2023-02-28T13:34:38;3.17;;;0.80;;
47053;SDS011;32811;52.382;5.270;2023-02-28T13:39:57;1.45;;;0.70;;
47053;SDS011;32811;52.382;5.270;2023-02-28T13:47:41;4.90;;;1.33;;
47053;SDS011;32811;52.382;5.270;2023-02-28T13:50:22;3.13;;;1.00;;
47053;SDS011;32811;52.382;5.270;2023-02-28T13:53:36;2.63;;;1.25;;
47053;SDS011;32811;52.382;5.270;2023-02-28T13:55:49;5.43;;;1.20;;
47053;SDS011;32811;52.382;5.270;2023-02-28T14:07:25;1.55;;;1.02;;
47053;SDS011;32811;52.382;5.270;2023-02-28T14:10:03;2.35;;;1.23;;
47053;SDS011;32811;52.382;5.270;2023-02-28T14:15:30;3.72;;;1.40;;
47053;SDS011;32811;52.382;5.270;2023-02-28T14:18:05;5.05;;;1.95;;
47053;SDS011;32811;52.382;5.270;2023-02-28T14:20:41;2.47;;;1.17;;
47053;SDS011;32811;52.382;5.270;2023-02-28T14:23:34;1.80;;;1.00;;
47053;SDS011;32811;52.382;5.270;2023-02-28T14:31:38;3.22;;;1.60;;
47053;SDS011;32811;52.382;5.270;2023-02-28T14:37:00;2.78;;;1.00;;
47053;SDS011;32811;52.382;5.270;2023-02-28T14:39:29;2.72;;;1.35;;
47053;SDS011;32811;52.382;5.270;2023-02-28T14:41:57;2.15;;;1.40;;
47053;SDS011;32811;52.382;5.270;2023-02-28T14:44:31;2.25;;;1.42;;
47053;SDS011;32811;52.382;5.270;2023-02-28T14:47:01;2.40;;;1.63;;
47053;SDS011;32811;52.382;5.270;2023-02-28T14:49:41;3.17;;;1.20;;
47053;SDS011;32811;52.382;5.270;2023-02-28T14:52:15;3.00;;;1.83;;
47053;SDS011;32811;52.382;5.270;2023-02-28T14:54:43;3.63;;;1.10;;
47053;SDS011;32811;52.382;5.270;2023-02-28T14:59:58;3.08;;;1.25;;
47053;SDS011;32811;52.382;5.270;2023-02-28T15:02:41;2.28;;;1.27;;
47053;SDS011;32811;52.382;5.270;2023-02-28T15:07:44;1.55;;;0.63;;
47053;SDS011;32811;52.382;5.270;2023-02-28T15:10:23;2.78;;;1.27;;
47053;SDS011;32811;52.382;5.270;2023-02-28T15:12:57;1.20;;;0.70;;
47053;SDS011;32811;52.382;5.270;2023-02-28T15:15:49;1.42;;;0.95;;
47053;SDS011;32811;52.382;5.270;2023-02-28T15:18:33;2.63;;;1.27;;
47053;SDS011;32811;52.382;5.270;2023-02-28T15:21:12;1.63;;;0.90;;
47053;SDS011;32811;52.382;5.270;2023-02-28T15:23:45;2.10;;;0.93;;
47053;SDS011;32811;52.382;5.270;2023-02-28T15:26:19;1.73;;;0.70;;
47053;SDS011;32811;52.382;5.270;2023-02-28T15:28:53;1.15;;;0.80;;
47053;SDS011;32811;52.382;5.270;2023-02-28T15:31:29;1.05;;;0.70;;
47053;SDS011;32811;52.382;5.270;2023-02-28T15:34:25;1.75;;;0.88;;
47053;SDS011;32811;52.382;5.270;2023-02-28T15:37:06;2.90;;;0.93;;
47053;SDS011;32811;52.382;5.270;2023-02-28T15:39:57;1.13;;;0.68;;
47053;SDS011;32811;52.382;5.270;2023-02-28T15:42:31;1.20;;;0.70;;
47053;SDS011;32811;52.382;5.270;2023-02-28T15:44:58;4.00;;;1.85;;
47053;SDS011;32811;52.382;5.270;2023-02-28T15:47:26;2.03;;;1.40;;
47053;SDS011;32811;52.382;5.270;2023-02-28T15:49:59;2.83;;;1.20;;
47053;SDS011;32811;52.382;5.270;2023-02-28T15:52:29;0.95;;;0.88;;
47053;SDS011;32811;52.382;5.270;2023-02-28T15:55:15;1.50;;;0.82;;
47053;SDS011;32811;52.382;5.270;2023-02-28T15:57:47;2.10;;;1.48;;
47053;SDS011;32811;52.382;5.270;2023-02-28T16:00:19;1.73;;;1.30;;
47053;SDS011;32811;52.382;5.270;2023-02-28T16:02:48;2.70;;;1.50;;
47053;SDS011;32811;52.382;5.270;2023-02-28T16:07:46;2.22;;;1.35;;
47053;SDS011;32811;52.382;5.270;2023-02-28T16:10:15;3.70;;;1.73;;
47053;SDS011;32811;52.382;5.270;2023-02-28T16:12:42;3.20;;;1.58;;
47053;SDS011;32811;52.382;5.270;2023-02-28T16:15:30;2.50;;;1.45;;
47053;SDS011;32811;52.382;5.270;2023-02-28T16:17:58;2.75;;;1.95;;
47053;SDS011;32811;52.382;5.270;2023-02-28T16:20:26;6.30;;;1.35;;
47053;SDS011;32811;52.382;5.270;2023-02-28T16:22:55;2.60;;;1.33;;
47053;SDS011;32811;52.382;5.270;2023-02-28T16:25:28;1.92;;;1.40;;
47053;SDS011;32811;52.382;5.270;2023-02-28T16:28:00;2.70;;;1.40;;
47053;SDS011;32811;52.382;5.270;2023-02-28T16:30:28;5.28;;;1.35;;
47053;SDS011;32811;52.382;5.270;2023-02-28T16:32:59;3.05;;;1.35;;
47053;SDS011;32811;52.382;5.270;2023-02-28T16:35:25;3.92;;;1.30;;
47053;SDS011;32811;52.382;5.270;2023-02-28T16:37:52;3.25;;;1.98;;
47053;SDS011;32811;52.382;5.270;2023-02-28T16:40:24;2.10;;;1.67;;
47053;SDS011;32811;52.382;5.270;2023-02-28T16:42:55;2.42;;;1.80;;
47053;SDS011;32811;52.382;5.270;2023-02-28T16:45:26;2.63;;;2.35;;
47053;SDS011;32811;52.382;5.270;2023-02-28T16:47:54;3.85;;;1.60;;
47053;SDS011;32811;52.382;5.270;2023-02-28T16:50:23;2.67;;;1.50;;
47053;SDS011;32811;52.382;5.270;2023-02-28T16:52:51;2.58;;;1.52;;
47053;SDS011;32811;52.382;5.270;2023-02-28T16:55:18;3.08;;;2.00;;
47053;SDS011;32811;52.382;5.270;2023-02-28T16:57:50;9.07;;;1.98;;
47053;SDS011;32811;52.382;5.270;2023-02-28T17:00:18;4.90;;;2.13;;
47053;SDS011;32811;52.382;5.270;2023-02-28T17:02:45;2.70;;;1.92;;
47053;SDS011;32811;52.382;5.270;2023-02-28T17:05:12;3.08;;;1.85;;
47053;SDS011;32811;52.382;5.270;2023-02-28T17:07:41;2.30;;;1.90;;
47053;SDS011;32811;52.382;5.270;2023-02-28T17:10:16;4.65;;;2.17;;
47053;SDS011;32811;52.382;5.270;2023-02-28T17:13:04;3.17;;;2.05;;
47053;SDS011;32811;52.382;5.270;2023-02-28T17:22:10;3.53;;;2.25;;
47053;SDS011;32811;52.382;5.270;2023-02-28T17:24:36;7.03;;;2.40;;
47053;SDS011;32811;52.382;5.270;2023-02-28T17:27:05;3.85;;;2.65;;
47053;SDS011;32811;52.382;5.270;2023-02-28T17:29:35;2.97;;;2.33;;
47053;SDS011;32811;52.382;5.270;2023-02-28T17:32:02;4.68;;;2.83;;
47053;SDS011;32811;52.382;5.270;2023-02-28T17:34:43;5.53;;;2.47;;
47053;SDS011;32811;52.382;5.270;2023-02-28T17:37:10;7.00;;;3.10;;
47053;SDS011;32811;52.382;5.270;2023-02-28T17:39:37;4.00;;;2.65;;
47053;SDS011;32811;52.382;5.270;2023-02-28T17:42:03;4.95;;;2.60;;
47053;SDS011;32811;52.382;5.270;2023-02-28T17:44:30;3.63;;;2.30;;
47053;SDS011;32811;52.382;5.270;2023-02-28T17:46:57;7.93;;;3.97;;
47053;SDS011;32811;52.382;5.270;2023-02-28T17:49:25;3.50;;;2.55;;
47053;SDS011;32811;52.382;5.270;2023-02-28T17:51:51;3.70;;;2.33;;
47053;SDS011;32811;52.382;5.270;2023-02-28T17:54:19;6.18;;;2.47;;